Time;durP1;ratioP1;P1;durP2;ratioP2;P2;SDS_P1;SDS_P2;PMS_P1;PMS_P2;Temp;Humidity;BMP_temperature;BMP_pressure;BME280_temperature;BME280_humidity;BME280_pressure;Samples;Min_cycle;Max_cycle;Signal;HPM_P1;HPM_P2
2023/12/22 00:00:56;;;;;;;;;;;22.90;34.00;;;;;;5072244;28;19937;-59
2023/12/22 00:03:23;;;;;;;;;;;22.90;34.00;;;;;;5072482;28;19970;-59
2023/12/22 00:05:50;;;;;;;;;;;22.90;34.00;;;;;;5072542;28;19935;-59
2023/12/22 00:08:17;;;;;;;;;;;22.90;34.00;;;;;;5072519;28;19932;-59
2023/12/22 00:10:44;;;;;;;;;;;22.90;34.00;;;;;;5071683;28;20373;-59
2023/12/22 00:13:11;;;;;;;;;;;22.80;34.00;;;;;;5072779;28;19928;-59
2023/12/22 00:15:38;;;;;;;;;;;22.80;34.10;;;;;;5072438;28;19933;-58
2023/12/22 00:18:05;;;;;;;;;;;22.90;34.20;;;;;;5076122;28;19931;-59
2023/12/22 00:20:32;;;;;;;;;;;22.90;34.10;;;;;;5075932;28;19924;-58
2023/12/22 00:22:59;;;;;;;;;;;22.80;34.00;;;;;;5076439;28;19924;-59
2023/12/22 00:25:26;;;;;;;;;;;22.90;34.10;;;;;;5076115;28;19925;-59
2023/12/22 00:27:53;;;;;;;;;;;22.80;34.10;;;;;;5075856;28;19931;-59
2023/12/22 00:30:20;;;;;;;;;;;22.80;34.10;;;;;;5076354;28;19928;-60
2023/12/22 00:32:47;;;;;;;;;;;22.80;34.10;;;;;;5076020;28;20362;-59
2023/12/22 00:35:14;;;;;;;;;;;22.90;34.10;;;;;;5076285;28;20011;-59
2023/12/22 00:37:41;;;;;;;;;;;22.90;34.10;;;;;;5075542;28;20369;-59
2023/12/22 00:40:09;;;;;;;;;;;22.80;34.10;;;;;;5075627;28;19924;-59
2023/12/22 00:42:36;;;;;;;;;;;22.90;34.20;;;;;;5074379;28;19931;-59
2023/12/22 00:45:03;;;;;;;;;;;22.80;34.70;;;;;;5075803;28;19987;-59
2023/12/22 00:47:30;;;;;;;;;;;22.80;34.10;;;;;;5075662;28;20015;-59
2023/12/22 00:49:57;;;;;;;;;;;22.80;34.10;;;;;;5075767;28;19954;-59
2023/12/22 00:52:24;;;;;;;;;;;22.80;34.10;;;;;;5075883;28;19925;-59
2023/12/22 00:54:51;;;;;;;;;;;22.80;34.10;;;;;;5075650;28;19928;-59
2023/12/22 00:57:18;;;;;;;;;;;22.80;34.00;;;;;;5076121;28;20007;-59
2023/12/22 00:59:47;;;;;;;;;;;22.80;34.00;;;;;;5075814;28;20015;-59
2023/12/22 01:02:17;;;;;;;;;;;22.80;34.00;;;;;;5075579;28;19929;-58
2023/12/22 01:04:44;;;;;;;;;;;22.90;34.10;;;;;;5074693;28;19974;-59
2023/12/22 01:07:12;;;;;;;;;;;22.80;34.00;;;;;;5075264;28;19929;-58
2023/12/22 01:09:39;;;;;;;;;;;22.80;34.10;;;;;;5075244;28;19928;-58
2023/12/22 01:12:07;;;;;;;;;;;22.80;34.10;;;;;;5075040;28;19986;-58
2023/12/22 01:14:34;;;;;;;;;;;22.80;34.10;;;;;;5075763;28;19924;-58
2023/12/22 01:17:01;;;;;;;;;;;22.80;34.10;;;;;;5075056;28;19936;-58
2023/12/22 01:19:28;;;;;;;;;;;22.80;34.10;;;;;;5074298;28;19978;-59
2023/12/22 01:21:55;;;;;;;;;;;22.80;34.20;;;;;;5075140;28;20323;-59
2023/12/22 01:24:22;;;;;;;;;;;22.80;34.10;;;;;;5075438;28;20007;-59
2023/12/22 01:26:49;;;;;;;;;;;22.80;34.20;;;;;;5074212;28;19924;-59
2023/12/22 01:29:16;;;;;;;;;;;22.80;34.10;;;;;;5075370;28;19971;-59
2023/12/22 01:31:43;;;;;;;;;;;22.80;34.20;;;;;;5074758;28;19925;-58
2023/12/22 01:34:10;;;;;;;;;;;22.80;34.20;;;;;;5075197;28;19925;-58
2023/12/22 01:36:37;;;;;;;;;;;22.80;34.20;;;;;;5073968;28;19970;-58
2023/12/22 01:39:04;;;;;;;;;;;22.70;34.10;;;;;;5074649;28;19976;-59
2023/12/22 01:41:34;;;;;;;;;;;22.70;34.10;;;;;;5074349;28;19935;-58
2023/12/22 01:44:00;;;;;;;;;;;22.80;34.20;;;;;;5074436;28;19970;-59
2023/12/22 01:46:27;;;;;;;;;;;22.70;34.10;;;;;;5089674;28;20385;-59
2023/12/22 01:48:55;;;;;;;;;;;22.80;34.20;;;;;;5094961;28;19924;-58
2023/12/22 01:51:22;;;;;;;;;;;22.80;34.20;;;;;;5094921;28;19927;-59
2023/12/22 01:53:50;;;;;;;;;;;22.70;34.10;;;;;;5081718;28;20457;-59
2023/12/22 01:56:17;;;;;;;;;;;22.70;34.10;;;;;;5074385;28;20448;-59
2023/12/22 01:58:44;;;;;;;;;;;22.80;34.10;;;;;;5074073;28;19970;-59
2023/12/22 02:01:11;;;;;;;;;;;22.80;34.10;;;;;;5074288;28;19978;-59
2023/12/22 02:03:38;;;;;;;;;;;22.80;34.10;;;;;;5073752;28;19931;-59
2023/12/22 02:06:05;;;;;;;;;;;22.80;34.60;;;;;;5074073;28;19970;-58
2023/12/22 02:08:33;;;;;;;;;;;22.80;34.10;;;;;;5074144;28;20464;-58
2023/12/22 02:11:00;;;;;;;;;;;22.70;34.00;;;;;;5072912;28;19928;-59
2023/12/22 02:13:28;;;;;;;;;;;22.70;34.10;;;;;;5074288;28;19968;-58
2023/12/22 02:16:00;;;;;;;;;;;22.70;34.10;;;;;;5072512;28;19928;-59
2023/12/22 02:18:32;;;;;;;;;;;22.70;34.10;;;;;;5073918;28;20053;-58
2023/12/22 02:20:59;;;;;;;;;;;22.70;34.20;;;;;;5073573;28;20374;-59
2023/12/22 02:23:26;;;;;;;;;;;22.70;34.20;;;;;;5073698;28;19925;-58
2023/12/22 02:25:57;;;;;;;;;;;22.70;34.20;;;;;;5074266;28;19924;-59
2023/12/22 02:28:25;;;;;;;;;;;22.70;34.20;;;;;;5073558;28;19924;-59
2023/12/22 02:31:00;;;;;;;;;;;22.70;34.20;;;;;;5073729;28;19932;-59
2023/12/22 02:33:28;;;;;;;;;;;22.70;34.20;;;;;;5073879;28;20358;-59
2023/12/22 02:35:58;;;;;;;;;;;22.70;34.20;;;;;;5073463;28;19924;-59
2023/12/22 02:38:25;;;;;;;;;;;22.70;34.20;;;;;;5072930;28;19925;-58
2023/12/22 02:40:52;;;;;;;;;;;22.70;34.20;;;;;;5073206;28;19932;-59
2023/12/22 02:43:19;;;;;;;;;;;22.70;34.20;;;;;;5073359;28;19971;-59
2023/12/22 02:45:49;;;;;;;;;;;22.70;34.20;;;;;;5073480;28;20374;-59
2023/12/22 02:48:17;;;;;;;;;;;22.70;34.20;;;;;;5072358;28;20412;-59
2023/12/22 02:50:44;;;;;;;;;;;22.70;34.20;;;;;;5072211;28;19925;-59
2023/12/22 02:53:10;;;;;;;;;;;22.70;34.20;;;;;;5073636;28;19998;-59
2023/12/22 02:55:37;;;;;;;;;;;22.70;34.30;;;;;;5073362;28;19936;-59
2023/12/22 02:58:04;;;;;;;;;;;22.70;34.30;;;;;;5073480;28;19928;-58
2023/12/22 03:00:31;;;;;;;;;;;22.70;34.30;;;;;;5073231;28;19970;-58
2023/12/22 03:02:58;;;;;;;;;;;22.60;34.20;;;;;;5072892;28;19964;-58
2023/12/22 03:05:25;;;;;;;;;;;22.60;34.20;;;;;;5073205;28;20388;-58
2023/12/22 03:07:52;;;;;;;;;;;22.70;34.20;;;;;;5072997;28;19932;-58
2023/12/22 03:10:19;;;;;;;;;;;22.70;34.20;;;;;;5055286;28;19924;-58
2023/12/22 03:12:46;;;;;;;;;;;22.70;34.20;;;;;;5072696;28;19936;-60
2023/12/22 03:15:13;;;;;;;;;;;22.70;34.20;;;;;;5073486;28;19925;-58
2023/12/22 03:17:40;;;;;;;;;;;22.70;34.30;;;;;;5072720;28;19972;-58
2023/12/22 03:20:07;;;;;;;;;;;22.60;34.20;;;;;;5073362;28;19948;-58
2023/12/22 03:22:34;;;;;;;;;;;22.70;34.30;;;;;;5072903;28;19929;-59
2023/12/22 03:25:00;;;;;;;;;;;22.70;34.30;;;;;;5071485;28;19933;-58
2023/12/22 03:27:27;;;;;;;;;;;22.60;34.30;;;;;;5064243;28;19932;-58
2023/12/22 03:29:54;;;;;;;;;;;22.60;34.30;;;;;;5072686;28;20339;-59
2023/12/22 03:32:21;;;;;;;;;;;22.60;34.30;;;;;;5035852;28;19925;-59
2023/12/22 03:34:48;;;;;;;;;;;22.60;34.30;;;;;;5052764;28;19932;-60
2023/12/22 03:37:15;;;;;;;;;;;22.60;34.30;;;;;;5057764;28;19932;-58
2023/12/22 03:39:42;;;;;;;;;;;22.60;34.30;;;;;;5064812;28;19975;-59
2023/12/22 03:42:10;;;;;;;;;;;22.60;34.30;;;;;;5052280;28;19971;-59
2023/12/22 03:44:36;;;;;;;;;;;22.60;34.30;;;;;;5052799;28;19951;-58
2023/12/22 03:47:03;;;;;;;;;;;22.60;34.30;;;;;;5052840;28;19932;-59
2023/12/22 03:49:30;;;;;;;;;;;22.60;34.30;;;;;;5052988;28;19964;-59
2023/12/22 03:51:57;;;;;;;;;;;22.60;34.30;;;;;;5056669;28;19925;-59
2023/12/22 03:54:24;;;;;;;;;;;22.60;34.30;;;;;;5064936;28;19925;-59
2023/12/22 03:56:51;;;;;;;;;;;22.60;34.30;;;;;;5075136;28;20349;-59
2023/12/22 03:59:18;;;;;;;;;;;22.60;34.30;;;;;;5076709;28;19925;-59
2023/12/22 04:01:50;;;;;;;;;;;22.60;34.30;;;;;;5076180;28;19967;-59
2023/12/22 04:04:17;;;;;;;;;;;22.60;34.30;;;;;;5076445;28;19974;-59
2023/12/22 04:06:44;;;;;;;;;;;22.60;34.30;;;;;;5076369;28;19978;-59
2023/12/22 04:09:11;;;;;;;;;;;22.60;34.30;;;;;;5076384;28;19932;-59
2023/12/22 04:11:39;;;;;;;;;;;22.60;34.30;;;;;;5076601;28;20003;-59
2023/12/22 04:14:06;;;;;;;;;;;22.60;34.30;;;;;;5076444;28;20024;-59
2023/12/22 04:16:35;;;;;;;;;;;22.60;34.80;;;;;;5076356;28;20463;-59
2023/12/22 04:19:02;;;;;;;;;;;22.60;34.20;;;;;;5076188;28;19932;-59
2023/12/22 04:21:29;;;;;;;;;;;22.60;34.20;;;;;;5075896;28;20393;-59
2023/12/22 04:23:56;;;;;;;;;;;22.60;34.20;;;;;;5075164;28;19978;-61
2023/12/22 04:26:23;;;;;;;;;;;22.60;34.30;;;;;;5076211;28;19925;-59
2023/12/22 04:28:50;;;;;;;;;;;22.60;34.30;;;;;;5058060;28;19925;-59
2023/12/22 04:31:17;;;;;;;;;;;22.60;34.30;;;;;;5075915;28;19978;-59
2023/12/22 04:33:45;;;;;;;;;;;22.60;34.30;;;;;;5075954;28;19925;-59
2023/12/22 04:36:12;;;;;;;;;;;22.50;34.30;;;;;;5076167;28;19970;-59
2023/12/22 04:38:40;;;;;;;;;;;22.50;34.30;;;;;;5076091;28;19970;-59
2023/12/22 04:41:07;;;;;;;;;;;22.60;34.20;;;;;;5075886;28;19950;-58
2023/12/22 04:43:35;;;;;;;;;;;22.60;34.10;;;;;;5075926;28;20346;-59
2023/12/22 04:46:02;;;;;;;;;;;22.60;34.00;;;;;;5064474;28;20424;-59
2023/12/22 04:48:29;;;;;;;;;;;22.60;33.90;;;;;;5073765;28;20346;-60
2023/12/22 04:50:56;;;;;;;;;;;22.60;34.40;;;;;;5064269;28;19931;-59
2023/12/22 04:53:22;;;;;;;;;;;22.60;33.80;;;;;;5058934;28;20035;-58
2023/12/22 04:55:50;;;;;;;;;;;22.60;33.80;;;;;;5071190;28;19933;-59
2023/12/22 04:58:16;;;;;;;;;;;22.70;33.80;;;;;;5074847;28;20377;-59
2023/12/22 05:00:43;;;;;;;;;;;22.70;33.70;;;;;;5075004;28;19924;-59
2023/12/22 05:03:10;;;;;;;;;;;22.70;33.70;;;;;;5074142;28;20320;-58
2023/12/22 05:05:37;;;;;;;;;;;22.70;33.60;;;;;;5074859;28;19925;-59
2023/12/22 05:08:04;;;;;;;;;;;22.70;33.50;;;;;;5073953;28;19931;-59
2023/12/22 05:10:32;;;;;;;;;;;22.80;33.50;;;;;;5075532;28;19924;-59
2023/12/22 05:12:59;;;;;;;;;;;22.80;33.40;;;;;;5071444;28;19960;-59
2023/12/22 05:15:26;;;;;;;;;;;22.90;33.40;;;;;;5063038;28;19925;-59
2023/12/22 05:17:53;;;;;;;;;;;22.90;33.30;;;;;;5064240;28;19938;-59
2023/12/22 05:20:20;;;;;;;;;;;22.90;33.20;;;;;;5074752;28;20377;-56
2023/12/22 05:22:47;;;;;;;;;;;23.00;33.10;;;;;;5074370;28;19931;-57
2023/12/22 05:25:14;;;;;;;;;;;23.00;33.10;;;;;;5075719;28;20281;-57
2023/12/22 05:27:42;;;;;;;;;;;23.00;33.00;;;;;;5075156;28;19932;-56
2023/12/22 05:30:10;;;;;;;;;;;23.10;32.90;;;;;;5075446;28;19924;-58
2023/12/22 05:32:37;;;;;;;;;;;23.10;32.90;;;;;;5074933;28;19935;-58
2023/12/22 05:35:04;;;;;;;;;;;23.10;32.70;;;;;;5074239;28;19928;-58
2023/12/22 05:37:31;;;;;;;;;;;23.20;32.70;;;;;;5074298;28;19931;-58
2023/12/22 05:39:58;;;;;;;;;;;23.20;32.60;;;;;;5074542;28;19925;-58
2023/12/22 05:42:25;;;;;;;;;;;23.30;32.60;;;;;;5074515;28;19931;-58
2023/12/22 05:44:52;;;;;;;;;;;23.30;32.50;;;;;;5074724;28;19947;-58
2023/12/22 05:47:19;;;;;;;;;;;23.30;32.40;;;;;;5074730;28;19929;-58
2023/12/22 05:49:46;;;;;;;;;;;23.30;32.40;;;;;;5074336;28;20378;-58
2023/12/22 05:52:13;;;;;;;;;;;23.40;32.90;;;;;;5074586;28;19951;-58
2023/12/22 05:54:40;;;;;;;;;;;23.40;32.20;;;;;;5074456;28;19932;-58
2023/12/22 05:57:07;;;;;;;;;;;23.40;32.20;;;;;;5074506;28;19924;-58
2023/12/22 05:59:34;;;;;;;;;;;23.50;32.20;;;;;;5074619;28;19970;-58
2023/12/22 06:02:02;;;;;;;;;;;23.50;32.30;;;;;;5074186;28;19924;-58
2023/12/22 06:04:29;;;;;;;;;;;23.50;32.30;;;;;;5074257;28;19925;-58
2023/12/22 06:06:56;;;;;;;;;;;23.60;32.20;;;;;;5074091;28;20018;-58
2023/12/22 06:09:23;;;;;;;;;;;23.60;32.10;;;;;;5074189;28;20340;-58
2023/12/22 06:11:51;;;;;;;;;;;23.60;32.00;;;;;;5073681;28;20325;-58
2023/12/22 06:14:18;;;;;;;;;;;23.60;32.00;;;;;;5072986;28;19924;-58
2023/12/22 06:16:45;;;;;;;;;;;23.60;31.90;;;;;;5073513;28;19924;-58
2023/12/22 06:19:12;;;;;;;;;;;23.60;31.90;;;;;;5073282;28;20378;-58
2023/12/22 06:21:40;;;;;;;;;;;23.60;31.80;;;;;;5073333;28;19952;-59
2023/12/22 06:24:08;;;;;;;;;;;23.70;31.80;;;;;;5068697;28;19929;-58
2023/12/22 06:26:36;;;;;;;;;;;23.70;31.90;;;;;;5067793;28;19928;-57
2023/12/22 06:29:03;;;;;;;;;;;23.70;31.90;;;;;;5071373;28;20001;-59
2023/12/22 06:31:31;;;;;;;;;;;23.80;31.90;;;;;;5068419;28;19932;-59
2023/12/22 06:34:02;;;;;;;;;;;23.80;31.70;;;;;;5068452;28;19924;-60
2023/12/22 06:36:30;;;;;;;;;;;23.80;31.70;;;;;;5067439;28;19925;-58
2023/12/22 06:38:57;;;;;;;;;;;23.80;31.50;;;;;;5066555;28;20412;-58
2023/12/22 06:41:25;;;;;;;;;;;23.90;31.50;;;;;;5067505;28;19928;-59
2023/12/22 06:43:54;;;;;;;;;;;23.90;31.50;;;;;;5064929;28;19924;-61
2023/12/22 06:46:22;;;;;;;;;;;24.00;31.90;;;;;;5062719;28;19924;-60
2023/12/22 06:48:50;;;;;;;;;;;24.00;32.60;;;;;;5066350;28;20435;-58
2023/12/22 06:51:18;;;;;;;;;;;24.10;31.90;;;;;;5070789;28;19950;-58
2023/12/22 06:53:46;;;;;;;;;;;24.10;32.00;;;;;;5069042;28;19978;-58
2023/12/22 06:56:17;;;;;;;;;;;24.10;31.40;;;;;;5062164;28;20465;-58
2023/12/22 06:58:46;;;;;;;;;;;24.20;31.20;;;;;;5067870;28;19928;-59
2023/12/22 07:01:28;;;;;;;;;;;24.20;31.10;;;;;;5067985;28;19967;-59
2023/12/22 07:03:56;;;;;;;;;;;24.20;31.00;;;;;;5070757;28;19924;-58
2023/12/22 07:06:24;;;;;;;;;;;24.30;31.00;;;;;;5071465;28;19924;-59
2023/12/22 07:09:11;;;;;;;;;;;24.30;30.90;;;;;;5069385;28;20273;-59
2023/12/22 07:11:38;;;;;;;;;;;24.30;30.90;;;;;;5069418;28;19993;-59
2023/12/22 07:14:05;;;;;;;;;;;24.40;30.90;;;;;;5065276;28;19925;-59
2023/12/22 07:16:33;;;;;;;;;;;24.30;30.60;;;;;;5050868;28;20039;-57
2023/12/22 07:19:01;;;;;;;;;;;24.40;30.90;;;;;;5069176;28;19928;-59
2023/12/22 07:21:28;;;;;;;;;;;24.50;31.00;;;;;;5066935;28;20021;-58
2023/12/22 07:23:56;;;;;;;;;;;24.50;30.80;;;;;;5060886;28;19925;-58
2023/12/22 07:26:24;;;;;;;;;;;24.50;30.60;;;;;;5064057;28;19955;-58
2023/12/22 07:28:51;;;;;;;;;;;24.50;30.60;;;;;;5065597;28;19932;-58
2023/12/22 07:31:20;;;;;;;;;;;24.50;30.60;;;;;;5066741;28;19979;-58
2023/12/22 07:33:47;;;;;;;;;;;24.60;30.60;;;;;;5065601;28;19928;-56
2023/12/22 07:36:14;;;;;;;;;;;24.60;30.50;;;;;;5065407;28;20408;-57
2023/12/22 07:38:42;;;;;;;;;;;24.60;30.50;;;;;;5066650;28;19928;-58
2023/12/22 07:41:09;;;;;;;;;;;24.60;30.40;;;;;;5066447;28;19943;-58
2023/12/22 07:43:38;;;;;;;;;;;24.70;30.50;;;;;;5067443;28;19971;-59
2023/12/22 07:46:05;;;;;;;;;;;24.70;30.50;;;;;;5052821;28;19925;-59
2023/12/22 07:48:32;;;;;;;;;;;24.70;30.40;;;;;;5070183;28;19931;-59
2023/12/22 07:50:59;;;;;;;;;;;24.80;30.50;;;;;;5066916;28;19976;-58
2023/12/22 07:53:26;;;;;;;;;;;24.80;30.40;;;;;;5069565;28;19925;-56
2023/12/22 07:55:54;;;;;;;;;;;24.90;30.50;;;;;;5070850;28;20337;-59
2023/12/22 07:58:21;;;;;;;;;;;24.90;30.50;;;;;;5053046;28;19966;-58
2023/12/22 08:00:48;;;;;;;;;;;24.90;30.50;;;;;;5065468;28;19964;-59
2023/12/22 08:03:15;;;;;;;;;;;24.90;30.40;;;;;;5063459;28;20064;-58
2023/12/22 08:05:44;;;;;;;;;;;25.00;30.50;;;;;;5064292;28;20023;-57
2023/12/22 08:08:11;;;;;;;;;;;25.10;30.50;;;;;;5067475;28;19925;-57
2023/12/22 08:10:38;;;;;;;;;;;25.10;30.50;;;;;;5069836;28;19968;-57
2023/12/22 08:13:04;;;;;;;;;;;25.10;30.30;;;;;;5063724;28;19933;-59
2023/12/22 08:15:32;;;;;;;;;;;25.10;30.40;;;;;;5069849;28;20388;-57
2023/12/22 08:18:03;;;;;;;;;;;25.10;30.30;;;;;;5065922;28;19928;-58
2023/12/22 08:20:30;;;;;;;;;;;25.20;30.30;;;;;;5065180;28;20022;-58
2023/12/22 08:23:03;;;;;;;;;;;25.20;30.10;;;;;;5066887;28;19932;-57
2023/12/22 08:25:37;;;;;;;;;;;25.30;30.10;;;;;;5067932;28;19955;-58
2023/12/22 08:28:04;;;;;;;;;;;25.40;30.20;;;;;;5068448;28;19935;-56
2023/12/22 08:30:31;;;;;;;;;;;25.40;30.00;;;;;;5066556;28;19924;-56
2023/12/22 08:32:58;;;;;;;;;;;25.40;30.00;;;;;;5067227;28;19964;-56
2023/12/22 08:35:26;;;;;;;;;;;25.40;30.10;;;;;;5069789;28;19968;-58
2023/12/22 08:37:53;;;;;;;;;;;25.40;30.00;;;;;;5064783;28;20309;-59
2023/12/22 08:40:25;;;;;;;;;;;25.50;29.90;;;;;;5069673;28;19924;-58
2023/12/22 08:42:54;;;;;;;;;;;25.50;29.90;;;;;;5071305;28;19928;-56
2023/12/22 08:45:21;;;;;;;;;;;25.50;29.70;;;;;;5069564;28;19932;-57
2023/12/22 08:47:48;;;;;;;;;;;25.60;29.70;;;;;;5069153;28;20023;-56
2023/12/22 08:50:16;;;;;;;;;;;25.60;29.60;;;;;;5071155;28;19924;-55
2023/12/22 08:52:43;;;;;;;;;;;25.70;29.60;;;;;;5071589;28;19928;-56
2023/12/22 08:55:10;;;;;;;;;;;25.70;29.80;;;;;;5072301;28;20014;-58
2023/12/22 08:57:37;;;;;;;;;;;25.70;29.70;;;;;;5057438;28;19924;-58
2023/12/22 09:00:13;;;;;;;;;;;25.70;29.70;;;;;;5071570;28;19932;-59
2023/12/22 09:02:40;;;;;;;;;;;25.70;29.60;;;;;;5072362;28;20011;-58
2023/12/22 09:05:07;;;;;;;;;;;25.70;29.70;;;;;;5068767;28;19924;-54
2023/12/22 09:07:34;;;;;;;;;;;25.70;29.60;;;;;;5068174;28;20258;-58
2023/12/22 09:10:03;;;;;;;;;;;25.70;29.60;;;;;;5066193;28;19939;-57
2023/12/22 09:12:33;;;;;;;;;;;25.70;29.60;;;;;;5063375;28;20286;-60
2023/12/22 09:15:00;;;;;;;;;;;25.70;29.60;;;;;;5071516;28;19932;-60
2023/12/22 09:17:28;;;;;;;;;;;25.80;29.60;;;;;;5067084;28;20015;-60
2023/12/22 09:19:55;;;;;;;;;;;25.70;29.60;;;;;;5071801;28;19988;-61
2023/12/22 09:22:22;;;;;;;;;;;25.70;29.60;;;;;;5071331;28;20292;-59
2023/12/22 09:24:49;;;;;;;;;;;25.70;29.60;;;;;;5069530;28;19968;-57
2023/12/22 09:27:16;;;;;;;;;;;25.70;29.70;;;;;;5068987;28;20010;-58
2023/12/22 09:29:43;;;;;;;;;;;25.80;29.60;;;;;;5072080;28;19929;-57
2023/12/22 09:32:10;;;;;;;;;;;25.80;29.60;;;;;;5072515;28;19978;-58
2023/12/22 09:34:39;;;;;;;;;;;25.80;29.50;;;;;;5070511;28;19932;-62
2023/12/22 09:37:06;;;;;;;;;;;25.80;29.50;;;;;;5061604;28;20399;-58
2023/12/22 09:39:33;;;;;;;;;;;25.90;29.40;;;;;;5064998;28;20266;-59
2023/12/22 09:42:00;;;;;;;;;;;25.90;29.30;;;;;;5057873;28;19928;-60
2023/12/22 09:44:31;;;;;;;;;;;26.00;29.30;;;;;;5072569;28;19924;-59
2023/12/22 09:46:58;;;;;;;;;;;26.00;29.20;;;;;;5067493;28;19994;-59
2023/12/22 09:49:26;;;;;;;;;;;26.10;29.30;;;;;;5053181;28;20015;-59
2023/12/22 09:51:54;;;;;;;;;;;26.10;29.30;;;;;;5071308;28;19928;-59
2023/12/22 09:54:21;;;;;;;;;;;26.10;29.10;;;;;;5071905;28;20266;-60
2023/12/22 09:56:49;;;;;;;;;;;26.10;29.00;;;;;;5067264;28;19929;-59
2023/12/22 09:59:17;;;;;;;;;;;26.10;29.00;;;;;;5065931;28;20283;-60
2023/12/22 10:01:45;;;;;;;;;;;26.20;29.00;;;;;;5067073;28;19931;-59
2023/12/22 10:04:13;;;;;;;;;;;26.20;28.90;;;;;;5072128;28;19932;-59
2023/12/22 10:06:41;;;;;;;;;;;26.20;28.90;;;;;;5070036;28;19964;-59
2023/12/22 10:09:08;;;;;;;;;;;26.20;28.80;;;;;;5071285;28;19931;-59
2023/12/22 10:11:39;;;;;;;;;;;26.20;28.80;;;;;;5071164;28;19939;-59
2023/12/22 10:14:06;;;;;;;;;;;26.30;28.90;;;;;;5071860;28;19928;-58
2023/12/22 10:16:34;;;;;;;;;;;26.30;28.90;;;;;;5061537;28;19933;-59
2023/12/22 10:19:01;;;;;;;;;;;26.30;28.70;;;;;;5070733;28;19947;-58
2023/12/22 10:21:30;;;;;;;;;;;26.40;28.70;;;;;;5070033;28;20015;-59
2023/12/22 10:24:00;;;;;;;;;;;26.30;28.60;;;;;;5068008;28;19932;-59
2023/12/22 10:26:28;;;;;;;;;;;26.40;28.80;;;;;;5060365;28;19924;-58
2023/12/22 10:28:58;;;;;;;;;;;26.40;28.70;;;;;;5069147;28;20320;-57
2023/12/22 10:31:25;;;;;;;;;;;26.40;28.70;;;;;;5069784;28;20015;-58
2023/12/22 10:33:53;;;;;;;;;;;26.40;28.70;;;;;;5070576;28;20280;-58
2023/12/22 10:36:20;;;;;;;;;;;26.40;28.60;;;;;;5066760;28;20394;-59
2023/12/22 10:38:47;;;;;;;;;;;26.40;28.70;;;;;;5069043;28;19932;-60
2023/12/22 10:41:14;;;;;;;;;;;26.40;28.70;;;;;;5066843;28;20894;-59
2023/12/22 10:43:41;;;;;;;;;;;26.40;28.60;;;;;;5067099;28;19928;-59
2023/12/22 10:46:10;;;;;;;;;;;26.40;28.60;;;;;;5067450;28;19929;-58
2023/12/22 10:48:39;;;;;;;;;;;26.30;28.60;;;;;;5065880;28;19940;-58
2023/12/22 10:51:10;;;;;;;;;;;26.30;28.50;;;;;;5068806;28;19928;-59
2023/12/22 10:53:40;;;;;;;;;;;26.30;28.60;;;;;;5068166;28;19928;-58
2023/12/22 10:56:07;;;;;;;;;;;26.30;28.50;;;;;;5068864;28;19974;-59
2023/12/22 10:58:35;;;;;;;;;;;26.30;28.50;;;;;;5069888;28;20029;-58
2023/12/22 11:01:03;;;;;;;;;;;26.20;28.60;;;;;;5065485;28;19928;-58
2023/12/22 11:03:34;;;;;;;;;;;26.20;28.50;;;;;;5064964;28;19948;-58
2023/12/22 11:06:03;;;;;;;;;;;26.20;28.50;;;;;;5056181;28;19974;-59
2023/12/22 11:08:31;;;;;;;;;;;26.20;28.50;;;;;;5053990;28;19932;-57
2023/12/22 11:11:00;;;;;;;;;;;26.20;28.50;;;;;;5066538;28;19970;-58
2023/12/22 11:13:27;;;;;;;;;;;26.20;28.50;;;;;;5068425;28;19929;-57
2023/12/22 11:15:57;;;;;;;;;;;26.10;28.50;;;;;;5069545;28;19925;-58
2023/12/22 11:18:25;;;;;;;;;;;26.20;28.50;;;;;;5072270;28;20378;-58
2023/12/22 11:20:55;;;;;;;;;;;26.20;28.60;;;;;;5069692;28;20125;-56
2023/12/22 11:23:22;;;;;;;;;;;26.20;28.60;;;;;;5067165;28;19932;-57
2023/12/22 11:25:50;;;;;;;;;;;26.20;28.60;;;;;;5071405;28;20034;-58
2023/12/22 11:28:18;;;;;;;;;;;26.20;28.80;;;;;;5053817;28;19924;-58
2023/12/22 11:30:45;;;;;;;;;;;26.20;28.90;;;;;;5070804;28;19975;-58
2023/12/22 11:33:12;;;;;;;;;;;26.20;29.00;;;;;;5072188;28;19924;-58
2023/12/22 11:35:40;;;;;;;;;;;26.20;29.20;;;;;;5070607;28;19924;-58
2023/12/22 11:38:08;;;;;;;;;;;26.10;29.10;;;;;;5072384;28;19997;-58
2023/12/22 11:40:35;;;;;;;;;;;26.10;29.20;;;;;;5066443;28;19947;-58
2023/12/22 11:43:02;;;;;;;;;;;26.10;29.50;;;;;;5064346;28;20389;-58
2023/12/22 11:45:33;;;;;;;;;;;26.10;29.70;;;;;;5071285;28;19925;-58
2023/12/22 11:48:09;;;;;;;;;;;26.10;29.50;;;;;;5070199;28;19935;-58
2023/12/22 11:50:38;;;;;;;;;;;26.10;29.50;;;;;;5071900;28;20374;-58
2023/12/22 11:53:23;;;;;;;;;;;26.10;29.60;;;;;;5071983;28;19928;-58
2023/12/22 11:56:10;;;;;;;;;;;26.10;29.60;;;;;;5071615;28;19925;-58
2023/12/22 11:58:38;;;;;;;;;;;26.10;29.50;;;;;;5070902;28;20456;-58
2023/12/22 12:01:07;;;;;;;;;;;26.00;29.40;;;;;;5070116;28;19938;-59
2023/12/22 12:03:36;;;;;;;;;;;26.00;29.40;;;;;;5069819;28;19929;-58
2023/12/22 12:06:17;;;;;;;;;;;26.00;29.50;;;;;;5065277;28;19928;-58
2023/12/22 12:08:44;;;;;;;;;;;26.00;29.60;;;;;;5070973;28;20015;-58
2023/12/22 12:11:11;;;;;;;;;;;26.00;29.80;;;;;;5072586;28;20014;-58
2023/12/22 12:13:41;;;;;;;;;;;25.90;29.70;;;;;;5075786;28;19925;-58
2023/12/22 12:16:08;;;;;;;;;;;26.00;29.70;;;;;;5074061;28;19959;-57
2023/12/22 12:18:35;;;;;;;;;;;26.00;29.80;;;;;;5074105;28;20389;-58
2023/12/22 12:21:02;;;;;;;;;;;26.00;29.70;;;;;;5056066;28;19929;-58
2023/12/22 12:23:29;;;;;;;;;;;25.90;29.70;;;;;;5070456;28;20305;-58
2023/12/22 12:25:57;;;;;;;;;;;25.90;29.90;;;;;;5075455;28;19925;-56
2023/12/22 12:28:27;;;;;;;;;;;26.00;30.60;;;;;;5069916;28;19924;-56
2023/12/22 12:31:02;;;;;;;;;;;26.00;36.60;;;;;;5074625;28;19924;-57
2023/12/22 12:33:30;;;;;;;;;;;26.00;38.70;;;;;;5075347;28;19924;-59
2023/12/22 12:35:58;;;;;;;;;;;26.00;37.70;;;;;;5076208;28;19970;-59
2023/12/22 12:38:36;;;;;;;;;;;26.00;35.20;;;;;;5075770;28;19928;-57
2023/12/22 12:41:06;;;;;;;;;;;26.00;33.20;;;;;;5075169;28;20027;-58
2023/12/22 12:43:33;;;;;;;;;;;25.90;32.10;;;;;;5055832;28;19925;-56
2023/12/22 12:46:04;;;;;;;;;;;25.90;31.10;;;;;;5066072;28;19931;-57
2023/12/22 12:48:31;;;;;;;;;;;25.90;30.50;;;;;;5074368;28;19924;-56
2023/12/22 12:51:03;;;;;;;;;;;25.90;30.40;;;;;;5074620;28;20011;-56
2023/12/22 12:53:32;;;;;;;;;;;25.80;30.30;;;;;;5075276;28;19924;-56
2023/12/22 12:56:00;;;;;;;;;;;25.80;31.30;;;;;;5075768;28;20279;-56
2023/12/22 12:58:29;;;;;;;;;;;25.80;31.90;;;;;;5076123;28;19931;-56
2023/12/22 13:01:07;;;;;;;;;;;25.80;32.70;;;;;;5075479;28;19964;-58
2023/12/22 13:03:51;;;;;;;;;;;25.80;32.30;;;;;;5073410;28;19925;-54
2023/12/22 13:06:18;;;;;;;;;;;25.70;31.40;;;;;;5073347;28;19924;-58
2023/12/22 13:08:50;;;;;;;;;;;25.70;30.80;;;;;;5075036;28;19931;-58
2023/12/22 13:11:21;;;;;;;;;;;25.70;30.20;;;;;;5074928;28;19925;-58
2023/12/22 13:13:48;;;;;;;;;;;25.70;30.00;;;;;;5075304;28;19929;-58
2023/12/22 13:16:19;;;;;;;;;;;25.70;30.00;;;;;;5075201;28;20358;-58
2023/12/22 13:18:46;;;;;;;;;;;25.70;29.90;;;;;;5057527;28;20393;-58
2023/12/22 13:21:14;;;;;;;;;;;25.60;29.80;;;;;;5075492;28;19928;-58
2023/12/22 13:23:41;;;;;;;;;;;25.60;29.80;;;;;;5074334;28;19924;-58
2023/12/22 13:26:21;;;;;;;;;;;25.60;29.80;;;;;;5074713;28;19931;-58
2023/12/22 13:28:48;;;;;;;;;;;25.60;29.70;;;;;;5074855;28;19924;-58
2023/12/22 13:31:18;;;;;;;;;;;25.60;29.70;;;;;;5074951;28;19963;-58
2023/12/22 13:33:46;;;;;;;;;;;25.60;29.70;;;;;;5075345;28;19933;-58
2023/12/22 13:36:13;;;;;;;;;;;25.60;30.10;;;;;;5075326;28;20289;-58
2023/12/22 13:38:45;;;;;;;;;;;25.60;29.70;;;;;;5074904;28;19974;-57
2023/12/22 13:41:12;;;;;;;;;;;25.50;29.70;;;;;;5074662;28;20409;-58
2023/12/22 13:43:39;;;;;;;;;;;25.60;29.80;;;;;;5074993;28;19978;-57
2023/12/22 13:46:07;;;;;;;;;;;25.50;29.80;;;;;;5074968;28;20114;-58
2023/12/22 13:48:37;;;;;;;;;;;25.50;29.80;;;;;;5074225;28;19928;-58
2023/12/22 13:51:04;;;;;;;;;;;25.50;29.80;;;;;;5074505;28;19935;-58
2023/12/22 13:53:31;;;;;;;;;;;25.50;29.80;;;;;;5074981;28;19925;-58
2023/12/22 13:55:58;;;;;;;;;;;25.50;29.80;;;;;;5074461;28;19924;-58
2023/12/22 13:58:25;;;;;;;;;;;25.50;29.80;;;;;;5074135;28;20007;-58
2023/12/22 14:00:53;;;;;;;;;;;25.50;29.80;;;;;;5074715;28;20293;-56
2023/12/22 14:03:23;;;;;;;;;;;25.50;29.90;;;;;;5074720;28;19928;-57
2023/12/22 14:05:52;;;;;;;;;;;25.50;30.00;;;;;;5074106;28;19931;-58
2023/12/22 14:08:19;;;;;;;;;;;25.40;30.10;;;;;;5074539;28;19925;-58
2023/12/22 14:10:47;;;;;;;;;;;25.40;30.10;;;;;;5074007;28;20004;-58
2023/12/22 14:13:14;;;;;;;;;;;25.40;30.10;;;;;;5074513;28;19924;-58
2023/12/22 14:15:42;;;;;;;;;;;25.40;30.00;;;;;;5073560;28;19924;-58
2023/12/22 14:18:11;;;;;;;;;;;25.40;30.00;;;;;;5073994;28;19925;-58
2023/12/22 14:20:38;;;;;;;;;;;25.40;29.90;;;;;;5074117;28;19924;-58